Dauntless Aviation
Airports Asia Taiwan
RCGM

Taoyuan Air Base (Closed)

Taoyuan City, TAIWAN

Airport Info
Suggest Updated Information for this Airport

Location

Latitude / Longitude: 25°3'23"N / 121°14'39"E
  25°3.396'N / 121°14.658'E
  25.0566 / 121.2443
Satellite photo at:
Airport distance calculator
From:
Weather Reports

METAR

RCTP
1.6nm W
RCTP 190630Z 02008KT 9999 FEW020 SCT080 24/20 Q1018 NOSIG RMK A3006
RCSS
15.7nm NE
RCSS 190630Z VRB03KT 9999 FEW020 BKN120 26/18 Q1017 NOSIG RMK A3005

TAF

RCTP
1.6nm W
TAF RCTP 190500Z 1906/2012 02005KT 9999 FEW012 SCT020 BKN032 TEMPO 1906/1910 34010KT FEW008 BKN012 BKN040 BECMG 1910/1912 06012KT TEMPO 1918/1924 4000 BR FEW008 BKN016 BKN040
RCSS
15.7nm NE
TAF RCSS 190500Z 1906/2006 31005KT 9999 FEW015 BKN050 BKN080 BECMG 1909/1911 09008KT FEW012 BKN032 BKN060 TEMPO 1918/1924 5000 BR FEW010 BKN016 BKN040
Safelog

 

Dauntless Aviation

© 2007-2019 Dauntless Aviation, all rights reserved
Information provided via PilotNav comes from a variety of official and unofficial data sources. As errors are possible, do not use PilotNav for primary flight planning purposes. Verify any information that you receive via PilotNav with current and canonical charts and other official documents. The material in this database is subject to database copyrights held by Dauntless Aviation and may not be copied without the express permission of Dauntless Aviation - licenses for use of part of all of this data are available for purchase; enquire via the Dauntless Aviation helpdesk. A number of mechanisms and markers exist in the database to protect against and identify infringement / copyright. Automated queries against this website are stictly prohibited, and all activity is logged and analyzed.